createdAt,value
2022-10-28T00:01:57.902Z,75.87
2022-10-28T00:05:00.725Z,87.32
2022-10-28T00:08:03.233Z,102.27
2022-10-28T00:11:11.297Z,85.38
2022-10-28T00:14:15.074Z,73.50
2022-10-28T00:17:17.949Z,93.87
2022-10-28T00:20:20.588Z,80.03
2022-10-28T00:23:23.331Z,32.63
2022-10-28T00:26:30.650Z,64.28
2022-10-28T00:29:34.181Z,62.33
2022-10-28T00:32:37.230Z,63.03
2022-10-28T00:35:39.952Z,63.10
2022-10-28T00:38:43.814Z,68.50
2022-10-28T00:41:55.567Z,69.03
2022-10-28T00:45:00.273Z,56.60
2022-10-28T00:48:03.399Z,72.45
2022-10-28T00:51:06.301Z,69.20
2022-10-28T00:54:09.197Z,70.27
2022-10-28T00:57:18.789Z,39.30
2022-10-28T01:00:21.633Z,61.40
2022-10-28T01:03:24.146Z,87.30
2022-10-28T01:06:27.903Z,78.03
2022-10-28T01:09:30.835Z,72.50
2022-10-28T01:12:49.151Z,73.43
2022-10-28T01:16:06.039Z,68.43
2022-10-28T01:19:11.703Z,50.28
2022-10-28T01:22:35.652Z,55.15
2022-10-28T01:25:59.216Z,56.07
2022-10-28T01:29:39.081Z,31.67
2022-10-28T01:33:00.436Z,40.30
2022-10-28T01:36:11.786Z,54.63
2022-10-28T01:39:26.844Z,28.52
2022-10-28T01:42:51.245Z,51.83
2022-10-28T01:46:08.236Z,52.13
2022-10-28T01:49:22.154Z,47.35
2022-10-28T01:52:27.172Z,68.43
2022-10-28T01:55:33.979Z,60.78
2022-10-28T01:58:38.131Z,51.23
2022-10-28T02:01:42.033Z,54.45
2022-10-28T02:04:44.955Z,58.20
2022-10-28T02:07:47.863Z,57.47
2022-10-28T02:11:11.991Z,34.38
2022-10-28T02:14:22.483Z,50.93
2022-10-28T02:17:49.384Z,69.57
2022-10-28T02:21:05.766Z,61.47
2022-10-28T02:24:19.783Z,61.90
2022-10-28T02:27:34.853Z,69.62
2022-10-28T02:31:08.553Z,68.27
2022-10-28T02:34:14.543Z,62.05
2022-10-28T02:37:44.066Z,64.22
2022-10-28T02:40:50.432Z,59.00
2022-10-28T02:44:00.139Z,65.87
2022-10-28T02:47:07.879Z,54.63
2022-10-28T02:50:13.176Z,57.80
2022-10-28T02:53:19.860Z,65.35
2022-10-28T02:56:22.684Z,65.97
2022-10-28T02:59:28.344Z,61.55
2022-10-28T03:02:31.135Z,64.00
2022-10-28T03:05:33.562Z,85.47
2022-10-28T03:08:36.322Z,61.17
2022-10-28T03:11:38.798Z,49.10
2022-10-28T03:14:42.478Z,87.85
2022-10-28T03:17:45.006Z,37.20
2022-10-28T03:20:47.911Z,50.60
2022-10-28T03:23:50.359Z,73.28
2022-10-28T03:26:54.063Z,67.18
2022-10-28T03:29:56.515Z,44.35
2022-10-28T03:32:59.233Z,56.73
2022-10-28T03:36:01.702Z,52.58
2022-10-28T03:39:04.987Z,50.67
2022-10-28T03:42:07.474Z,41.33
2022-10-28T03:45:10.692Z,45.38
2022-10-28T03:48:13.202Z,66.93
2022-10-28T03:51:15.916Z,44.75
2022-10-28T03:54:18.433Z,49.85
2022-10-28T03:57:21.166Z,58.40
2022-10-28T04:00:23.695Z,47.60
2022-10-28T04:03:26.865Z,43.07
2022-10-28T04:06:29.340Z,42.75
2022-10-28T04:09:32.061Z,65.68
2022-10-28T04:12:34.537Z,42.78
2022-10-28T04:15:37.464Z,58.45
2022-10-28T04:18:40.000Z,40.83
2022-10-28T04:21:42.842Z,67.40
2022-10-28T04:24:45.400Z,53.67
2022-10-28T04:27:48.495Z,59.22
2022-10-28T04:30:51.003Z,72.28
2022-10-28T04:33:53.705Z,49.90
2022-10-28T04:36:56.170Z,49.63
2022-10-28T04:39:59.576Z,50.65
2022-10-28T04:43:01.988Z,46.37
2022-10-28T04:46:06.176Z,36.33
2022-10-28T04:49:08.753Z,82.63
2022-10-28T04:52:14.822Z,53.87
2022-10-28T04:55:19.057Z,58.15
2022-10-28T04:58:21.796Z,51.47
2022-10-28T05:01:24.338Z,59.03
2022-10-28T05:04:27.178Z,51.37
2022-10-28T05:07:29.656Z,52.88
2022-10-28T05:10:32.492Z,54.33
2022-10-28T05:13:35.018Z,63.15
2022-10-28T05:16:37.785Z,50.03
2022-10-28T05:19:40.544Z,60.33
2022-10-28T05:22:51.383Z,50.72
2022-10-28T05:25:54.001Z,45.25
2022-10-28T05:28:56.747Z,62.78
2022-10-28T05:31:59.741Z,66.35
2022-10-28T05:35:03.303Z,61.03
2022-10-28T05:38:06.303Z,70.82
2022-10-28T05:41:09.148Z,66.50
2022-10-28T05:44:11.739Z,66.45
2022-10-28T05:47:14.503Z,61.55
2022-10-28T05:50:18.550Z,44.97
2022-10-28T05:53:21.428Z,52.28
2022-10-28T05:56:24.045Z,62.30
2022-10-28T05:59:27.253Z,52.83
2022-10-28T06:02:29.942Z,42.03
2022-10-28T06:05:33.588Z,48.33
2022-10-28T06:08:36.460Z,52.65
2022-10-28T06:11:37.732Z,45.33
2022-10-28T06:14:40.245Z,40.63
2022-10-28T06:17:46.583Z,48.75
2022-10-28T06:20:56.612Z,44.87
2022-10-28T06:23:59.516Z,42.15
2022-10-28T06:27:02.223Z,39.75
2022-10-28T06:30:06.044Z,41.35
2022-10-28T06:33:08.666Z,35.35
2022-10-28T06:36:11.557Z,53.33
2022-10-28T06:39:14.170Z,39.13
2022-10-28T06:42:17.646Z,39.80
2022-10-28T06:45:20.135Z,36.55
2022-10-28T06:48:24.599Z,28.55
2022-10-28T06:51:27.132Z,43.10
2022-10-28T06:54:30.039Z,41.72
2022-10-28T06:57:32.659Z,36.47
2022-10-28T07:00:35.614Z,41.37
2022-10-28T07:03:38.134Z,34.63
2022-10-28T07:06:41.083Z,31.63
2022-10-28T07:09:45.084Z,28.23
2022-10-28T07:12:47.908Z,33.78
2022-10-28T07:15:54.673Z,33.50
2022-10-28T07:18:57.507Z,32.28
2022-10-28T07:22:00.168Z,35.90
2022-10-28T07:25:03.069Z,35.67
2022-10-28T07:28:05.671Z,32.33
2022-10-28T07:31:08.669Z,31.98
2022-10-28T07:34:11.207Z,30.48
2022-10-28T07:37:14.081Z,36.63
2022-10-28T07:40:16.748Z,31.62
2022-10-28T07:43:19.594Z,39.42
2022-10-28T07:46:22.105Z,31.02
2022-10-28T07:49:25.189Z,27.52
2022-10-28T07:52:28.036Z,26.10
2022-10-28T07:55:30.804Z,23.48
2022-10-28T07:58:33.454Z,27.13
2022-10-28T08:01:36.512Z,26.05
2022-10-28T08:04:40.511Z,29.08
2022-10-28T08:07:43.327Z,25.27
2022-10-28T08:10:46.215Z,20.02
2022-10-28T08:13:48.755Z,28.12
2022-10-28T08:16:51.635Z,25.67
2022-10-28T08:19:54.155Z,24.33
2022-10-28T08:22:59.515Z,24.90
2022-10-28T08:26:03.412Z,32.38
2022-10-28T08:29:07.046Z,32.53
2022-10-28T08:32:09.693Z,28.20
2022-10-28T08:35:12.518Z,30.05
2022-10-28T08:38:15.361Z,26.30
2022-10-28T08:41:27.274Z,28.50
2022-10-28T08:44:41.791Z,32.28
2022-10-28T08:47:44.590Z,27.90
2022-10-28T08:50:50.697Z,24.52
2022-10-28T08:53:57.070Z,28.43
2022-10-28T08:57:01.665Z,27.83
2022-10-28T09:00:09.801Z,23.33
2022-10-28T09:03:17.418Z,26.45
2022-10-28T09:06:20.677Z,26.92
2022-10-28T09:09:23.602Z,26.43
2022-10-28T09:12:55.935Z,24.87
2022-10-28T09:16:16.421Z,26.35
2022-10-28T09:19:50.853Z,27.83
2022-10-28T09:23:04.043Z,27.48
2022-10-28T09:26:18.583Z,25.27
2022-10-28T09:29:44.367Z,26.67
2022-10-28T09:33:16.564Z,24.27
2022-10-28T09:36:24.192Z,24.85
2022-10-28T09:39:36.648Z,25.60
2022-10-28T09:42:42.647Z,30.20
2022-10-28T09:45:47.596Z,24.17
2022-10-28T09:48:51.837Z,26.15
2022-10-28T09:52:16.359Z,24.52
2022-10-28T09:55:20.811Z,21.73
2022-10-28T09:58:24.135Z,20.57
2022-10-28T10:01:31.242Z,21.02
2022-10-28T10:04:35.809Z,20.35
2022-10-28T10:07:41.752Z,22.70
2022-10-28T10:11:01.123Z,21.80
2022-10-28T10:14:07.778Z,18.33
2022-10-28T10:17:16.930Z,17.00
2022-10-28T10:20:21.110Z,16.55
2022-10-28T10:23:30.070Z,18.23
2022-10-28T10:26:33.110Z,17.48
2022-10-28T10:29:36.473Z,19.27
2022-10-28T10:32:39.124Z,21.95
2022-10-28T10:35:41.985Z,20.80
2022-10-28T10:38:50.750Z,22.25
2022-10-28T10:41:56.646Z,24.60
2022-10-28T10:45:17.530Z,23.63
2022-10-28T10:48:20.451Z,24.40
2022-10-28T10:51:27.397Z,20.15
2022-10-28T10:54:32.267Z,23.85
2022-10-28T10:57:35.015Z,22.92
2022-10-28T11:00:39.071Z,20.17
2022-10-28T11:03:50.061Z,19.92
2022-10-28T11:06:57.191Z,22.27
2022-10-28T11:10:00.194Z,23.45
2022-10-28T11:13:24.832Z,21.33
2022-10-28T11:16:27.650Z,22.50
2022-10-28T11:19:31.687Z,22.15
2022-10-28T11:22:43.483Z,19.95
2022-10-28T11:25:52.918Z,18.62
2022-10-28T11:28:55.454Z,19.90
2022-10-28T11:32:16.832Z,20.40
2022-10-28T11:35:47.092Z,19.27
2022-10-28T11:39:15.195Z,20.98
2022-10-28T11:42:21.228Z,21.10
2022-10-28T11:45:35.682Z,22.33
2022-10-28T11:48:46.594Z,18.50
2022-10-28T11:52:05.874Z,17.48
2022-10-28T11:55:21.458Z,20.98
2022-10-28T11:58:46.039Z,16.75
2022-10-28T12:02:18.250Z,18.35
2022-10-28T12:05:44.031Z,19.67
2022-10-28T12:08:46.371Z,21.83
2022-10-28T12:12:17.770Z,19.27
2022-10-28T12:15:45.346Z,23.73
2022-10-28T12:18:58.306Z,22.42
2022-10-28T12:22:19.514Z,21.10
2022-10-28T12:25:28.949Z,22.98
2022-10-28T12:28:41.118Z,21.08
2022-10-28T12:31:48.233Z,23.17
2022-10-28T12:35:01.230Z,21.50
2022-10-28T12:38:09.064Z,18.83
2022-10-28T12:41:30.631Z,19.50
2022-10-28T12:44:33.618Z,21.35
2022-10-28T12:47:53.333Z,19.40
2022-10-28T12:51:33.333Z,17.80
2022-10-28T12:54:53.672Z,17.07
2022-10-28T12:58:09.872Z,21.00
2022-10-28T13:01:17.410Z,15.63
2022-10-28T13:04:20.406Z,16.17
2022-10-28T13:07:26.710Z,16.45
2022-10-28T13:10:50.147Z,13.00
2022-10-28T13:14:14.867Z,14.80
2022-10-28T13:17:32.073Z,16.15
2022-10-28T13:21:06.155Z,13.00
2022-10-28T13:24:22.653Z,15.40
2022-10-28T13:27:25.526Z,14.73
2022-10-28T13:30:30.772Z,16.55
2022-10-28T13:33:36.138Z,16.08
2022-10-28T13:36:42.829Z,17.37
2022-10-28T13:39:46.799Z,19.87
2022-10-28T13:42:50.225Z,17.37
2022-10-28T13:45:54.725Z,19.10
2022-10-28T13:49:22.754Z,23.30
2022-10-28T13:52:25.187Z,21.40
2022-10-28T13:55:42.758Z,22.30
2022-10-28T13:59:05.554Z,18.50
2022-10-28T14:02:35.037Z,19.85
2022-10-28T14:05:38.322Z,22.42
2022-10-28T14:08:43.883Z,22.23
2022-10-28T14:11:46.606Z,21.33
2022-10-28T14:14:52.758Z,27.57
2022-10-28T14:18:37.369Z,24.27
2022-10-28T14:21:56.491Z,24.45
2022-10-28T14:25:04.043Z,21.33
2022-10-28T14:28:31.367Z,26.73
2022-10-28T14:31:38.441Z,23.73
2022-10-28T14:34:42.147Z,25.02
2022-10-28T14:37:50.709Z,21.42
2022-10-28T14:41:18.168Z,23.77
2022-10-28T14:44:35.780Z,28.83
2022-10-28T14:48:00.189Z,27.03
2022-10-28T14:51:03.205Z,25.12
2022-10-28T14:54:10.137Z,30.88
2022-10-28T14:57:12.924Z,28.73
2022-10-28T15:00:18.916Z,30.17
2022-10-28T15:03:21.787Z,31.60
2022-10-28T15:06:40.767Z,29.65
2022-10-28T15:09:44.812Z,30.17
2022-10-28T15:12:51.364Z,30.35
2022-10-28T15:15:57.366Z,25.45
2022-10-28T15:19:06.451Z,27.57
2022-10-28T15:22:14.945Z,26.50
2022-10-28T15:25:20.291Z,27.92
2022-10-28T15:28:23.074Z,28.85
2022-10-28T15:31:25.625Z,52.40
2022-10-28T15:34:29.781Z,50.63
2022-10-28T15:37:36.336Z,32.00
2022-10-28T15:40:39.121Z,39.35
2022-10-28T15:43:41.574Z,40.97
2022-10-28T15:46:49.219Z,38.95
2022-10-28T15:50:14.969Z,30.47
2022-10-28T15:53:40.271Z,35.00
2022-10-28T15:56:54.697Z,30.15
2022-10-28T16:00:28.795Z,26.12
2022-10-28T16:03:46.275Z,24.20
2022-10-28T16:06:52.702Z,25.57
2022-10-28T16:09:56.100Z,25.85
2022-10-28T16:12:58.546Z,38.08
2022-10-28T16:16:04.726Z,32.53
2022-10-28T16:19:09.150Z,47.10
2022-10-28T16:22:13.430Z,35.03
2022-10-28T16:25:20.885Z,42.72
2022-10-28T16:28:26.111Z,33.72
2022-10-28T16:31:29.573Z,45.12
2022-10-28T16:34:32.376Z,43.42
2022-10-28T16:37:35.070Z,36.13
2022-10-28T16:40:50.948Z,61.08
2022-10-28T16:43:55.936Z,34.05
2022-10-28T16:46:58.753Z,26.80
2022-10-28T16:50:01.262Z,33.15
2022-10-28T16:53:04.034Z,27.97
2022-10-28T16:56:12.526Z,32.25
2022-10-28T16:59:16.426Z,32.47
2022-10-28T17:02:28.667Z,33.50
2022-10-28T17:05:32.025Z,33.70
2022-10-28T17:09:01.282Z,29.30
2022-10-28T17:11:57.293Z,31.85
2022-10-28T17:14:59.739Z,27.23
2022-10-28T17:18:02.580Z,24.05
2022-10-28T17:21:05.211Z,25.20
2022-10-28T17:24:08.279Z,23.87
2022-10-28T17:27:10.782Z,24.48
2022-10-28T17:30:13.785Z,24.98
2022-10-28T17:33:16.288Z,23.75
2022-10-28T17:36:19.043Z,33.47
2022-10-28T17:39:25.859Z,26.63
2022-10-28T17:42:29.071Z,31.60
2022-10-28T17:45:31.690Z,25.37
2022-10-28T17:48:34.802Z,26.50
2022-10-28T17:51:38.269Z,28.05
2022-10-28T17:54:41.419Z,26.57
2022-10-28T17:57:45.862Z,31.00
2022-10-28T18:00:48.569Z,27.67
2022-10-28T18:03:51.500Z,29.15
2022-10-28T18:06:55.684Z,25.95
2022-10-28T18:09:58.822Z,26.97
2022-10-28T18:13:01.513Z,24.85
2022-10-28T18:16:25.414Z,30.15
2022-10-28T18:19:32.685Z,30.52
2022-10-28T18:22:35.689Z,31.30
2022-10-28T18:25:38.315Z,26.97
2022-10-28T18:28:42.755Z,28.48
2022-10-28T18:31:45.497Z,30.37
2022-10-28T18:34:48.586Z,37.50
2022-10-28T18:37:51.322Z,33.92
2022-10-28T18:40:54.619Z,31.47
2022-10-28T18:43:59.524Z,31.02
2022-10-28T18:47:02.490Z,30.08
2022-10-28T18:50:05.547Z,32.28
2022-10-28T18:53:08.320Z,30.88
2022-10-28T18:56:13.121Z,30.03
2022-10-28T18:59:16.238Z,31.30
2022-10-28T19:02:19.054Z,34.08
2022-10-28T19:05:22.255Z,28.17
2022-10-28T19:08:24.925Z,30.67
2022-10-28T19:11:32.393Z,27.67
2022-10-28T19:14:35.016Z,77.37
2022-10-28T19:17:38.239Z,51.88
2022-10-28T19:20:40.886Z,222.52
2022-10-28T19:23:43.778Z,497.80
2022-10-28T19:26:46.290Z,127.33
2022-10-28T19:29:49.348Z,48.35
2022-10-28T19:32:52.210Z,88.30
2022-10-28T19:36:00.656Z,51.30
2022-10-28T19:39:03.735Z,40.42
2022-10-28T19:42:06.514Z,39.00
2022-10-28T19:45:09.656Z,35.78
2022-10-28T19:48:12.581Z,34.47
2022-10-28T19:51:20.203Z,29.23
2022-10-28T19:54:23.013Z,30.25
2022-10-28T19:57:25.605Z,30.57
2022-10-28T20:00:28.519Z,33.28
2022-10-28T20:03:34.517Z,33.00
2022-10-28T20:06:39.531Z,31.40
2022-10-28T20:09:42.311Z,28.83
2022-10-28T20:12:44.959Z,32.00
2022-10-28T20:15:47.843Z,30.15
2022-10-28T20:18:50.741Z,28.98
2022-10-28T20:21:53.462Z,27.90
2022-10-28T20:24:56.184Z,30.65
2022-10-28T20:27:59.217Z,31.83
2022-10-28T20:31:03.988Z,30.60
2022-10-28T20:34:07.413Z,31.02
2022-10-28T20:37:09.867Z,33.25
2022-10-28T20:40:12.579Z,28.87
2022-10-28T20:43:16.334Z,30.97
2022-10-28T20:46:20.260Z,33.33
2022-10-28T20:49:22.902Z,38.30
2022-10-28T20:52:25.669Z,33.25
2022-10-28T20:55:28.214Z,33.28
2022-10-28T20:58:33.239Z,35.00
2022-10-28T21:01:40.130Z,35.63
2022-10-28T21:04:43.129Z,39.25
2022-10-28T21:07:45.605Z,38.13
2022-10-28T21:10:48.322Z,38.55
2022-10-28T21:13:52.532Z,38.63
2022-10-28T21:16:55.235Z,39.03
2022-10-28T21:19:57.821Z,37.70
2022-10-28T21:23:00.672Z,39.70
2022-10-28T21:26:05.302Z,39.75
2022-10-28T21:29:08.666Z,42.70
2022-10-28T21:32:11.210Z,41.47
2022-10-28T21:35:13.967Z,39.53
2022-10-28T21:38:18.084Z,44.17
2022-10-28T21:41:21.453Z,39.03
2022-10-28T21:44:23.912Z,43.63
2022-10-28T21:47:27.258Z,46.55
2022-10-28T21:50:29.852Z,49.30
2022-10-28T21:53:34.312Z,43.78
2022-10-28T21:56:36.814Z,45.80
2022-10-28T21:59:39.631Z,55.90
2022-10-28T22:02:42.328Z,44.97
2022-10-28T22:05:51.352Z,49.67
2022-10-28T22:08:55.232Z,47.85
2022-10-28T22:11:57.934Z,58.17
2022-10-28T22:15:00.382Z,49.63
2022-10-28T22:18:03.124Z,47.75
2022-10-28T22:21:18.966Z,48.15
2022-10-28T22:24:21.725Z,50.92
2022-10-28T22:27:24.158Z,49.75
2022-10-28T22:30:27.012Z,52.47
2022-10-28T22:33:29.619Z,48.60
2022-10-28T22:36:32.513Z,54.33
2022-10-28T22:39:35.003Z,50.65
2022-10-28T22:42:37.737Z,57.20
2022-10-28T22:45:40.230Z,51.50
2022-10-28T22:48:43.689Z,58.08
2022-10-28T22:51:46.136Z,57.80
2022-10-28T22:54:48.916Z,58.33
2022-10-28T22:57:54.190Z,53.92
2022-10-28T23:01:16.434Z,48.03
2022-10-28T23:04:19.198Z,55.00
2022-10-28T23:07:21.918Z,55.67
2022-10-28T23:10:24.411Z,50.60
2022-10-28T23:13:27.318Z,58.72
2022-10-28T23:16:29.865Z,51.30
2022-10-28T23:19:33.044Z,53.70
2022-10-28T23:22:35.557Z,48.60
2022-10-28T23:25:38.315Z,45.70
2022-10-28T23:28:41.393Z,47.75
2022-10-28T23:31:44.203Z,47.70
2022-10-28T23:34:46.624Z,46.75
2022-10-28T23:37:49.455Z,47.10
2022-10-28T23:40:56.583Z,37.28
2022-10-28T23:44:00.600Z,40.95
2022-10-28T23:47:03.081Z,39.80
2022-10-28T23:50:06.032Z,40.70
2022-10-28T23:53:08.450Z,42.83
2022-10-28T23:56:11.178Z,41.63
2022-10-28T23:59:13.862Z,46.05
